sensor_id;sensor_type;location;lat;lon;timestamp;P1;durP1;ratioP1;P2;durP2;ratioP2
25870;SDS011;13689;48.590;7.752;2023-07-09T00:00:45;8.73;;;3.53;;
25870;SDS011;13689;48.590;7.752;2023-07-09T00:03:12;9.70;;;3.50;;
25870;SDS011;13689;48.590;7.752;2023-07-09T00:05:38;6.85;;;3.80;;
25870;SDS011;13689;48.590;7.752;2023-07-09T00:08:03;8.40;;;3.33;;
25870;SDS011;13689;48.590;7.752;2023-07-09T00:10:29;7.90;;;4.13;;
25870;SDS011;13689;48.590;7.752;2023-07-09T00:12:55;11.13;;;3.80;;
25870;SDS011;13689;48.590;7.752;2023-07-09T00:15:21;11.88;;;3.60;;
25870;SDS011;13689;48.590;7.752;2023-07-09T00:17:47;10.52;;;3.15;;
25870;SDS011;13689;48.590;7.752;2023-07-09T00:20:13;6.72;;;3.88;;
25870;SDS011;13689;48.590;7.752;2023-07-09T00:22:42;12.93;;;3.53;;
25870;SDS011;13689;48.590;7.752;2023-07-09T00:25:19;5.60;;;3.33;;
25870;SDS011;13689;48.590;7.752;2023-07-09T00:27:45;11.40;;;3.40;;
25870;SDS011;13689;48.590;7.752;2023-07-09T00:30:17;7.57;;;3.40;;
25870;SDS011;13689;48.590;7.752;2023-07-09T00:32:45;9.50;;;3.70;;
25870;SDS011;13689;48.590;7.752;2023-07-09T00:35:14;9.48;;;4.32;;
25870;SDS011;13689;48.590;7.752;2023-07-09T00:37:40;11.15;;;3.95;;
25870;SDS011;13689;48.590;7.752;2023-07-09T00:40:18;11.52;;;4.03;;
25870;SDS011;13689;48.590;7.752;2023-07-09T00:42:46;11.02;;;4.53;;
25870;SDS011;13689;48.590;7.752;2023-07-09T00:55:32;10.05;;;3.63;;
25870;SDS011;13689;48.590;7.752;2023-07-09T00:58:03;11.27;;;4.22;;
25870;SDS011;13689;48.590;7.752;2023-07-09T01:00:35;8.30;;;4.32;;
25870;SDS011;13689;48.590;7.752;2023-07-09T01:03:11;11.93;;;4.75;;
25870;SDS011;13689;48.590;7.752;2023-07-09T01:05:41;10.93;;;5.03;;
25870;SDS011;13689;48.590;7.752;2023-07-09T01:08:08;9.07;;;4.30;;
25870;SDS011;13689;48.590;7.752;2023-07-09T01:10:35;14.18;;;4.68;;
25870;SDS011;13689;48.590;7.752;2023-07-09T01:13:01;10.98;;;4.38;;
25870;SDS011;13689;48.590;7.752;2023-07-09T01:15:27;8.73;;;3.75;;
25870;SDS011;13689;48.590;7.752;2023-07-09T01:17:52;8.77;;;3.50;;
25870;SDS011;13689;48.590;7.752;2023-07-09T01:20:19;6.88;;;3.70;;
25870;SDS011;13689;48.590;7.752;2023-07-09T01:22:49;10.02;;;3.33;;
25870;SDS011;13689;48.590;7.752;2023-07-09T01:25:19;7.65;;;3.40;;
25870;SDS011;13689;48.590;7.752;2023-07-09T01:27:46;6.28;;;3.45;;
25870;SDS011;13689;48.590;7.752;2023-07-09T01:30:18;6.35;;;4.13;;
25870;SDS011;13689;48.590;7.752;2023-07-09T01:32:49;7.45;;;4.40;;
25870;SDS011;13689;48.590;7.752;2023-07-09T01:35:16;11.07;;;4.30;;
25870;SDS011;13689;48.590;7.752;2023-07-09T01:37:45;6.20;;;3.80;;
25870;SDS011;13689;48.590;7.752;2023-07-09T01:40:12;6.93;;;3.50;;
25870;SDS011;13689;48.590;7.752;2023-07-09T01:42:40;7.15;;;4.32;;
25870;SDS011;13689;48.590;7.752;2023-07-09T01:45:06;9.75;;;4.50;;
25870;SDS011;13689;48.590;7.752;2023-07-09T01:47:35;7.38;;;3.88;;
25870;SDS011;13689;48.590;7.752;2023-07-09T01:50:01;6.30;;;3.30;;
25870;SDS011;13689;48.590;7.752;2023-07-09T01:52:28;7.75;;;3.60;;
25870;SDS011;13689;48.590;7.752;2023-07-09T01:54:56;8.93;;;3.47;;
25870;SDS011;13689;48.590;7.752;2023-07-09T01:57:24;7.00;;;3.38;;
25870;SDS011;13689;48.590;7.752;2023-07-09T01:59:58;6.93;;;4.03;;
25870;SDS011;13689;48.590;7.752;2023-07-09T02:02:24;9.75;;;4.15;;
25870;SDS011;13689;48.590;7.752;2023-07-09T02:04:51;6.50;;;4.00;;
25870;SDS011;13689;48.590;7.752;2023-07-09T02:09:45;6.88;;;3.42;;
25870;SDS011;13689;48.590;7.752;2023-07-09T02:12:11;6.57;;;3.70;;
25870;SDS011;13689;48.590;7.752;2023-07-09T02:14:38;6.72;;;3.63;;
25870;SDS011;13689;48.590;7.752;2023-07-09T02:17:04;5.33;;;3.43;;
25870;SDS011;13689;48.590;7.752;2023-07-09T02:19:30;6.70;;;3.42;;
25870;SDS011;13689;48.590;7.752;2023-07-09T02:21:56;9.52;;;3.60;;
25870;SDS011;13689;48.590;7.752;2023-07-09T02:24:22;6.82;;;3.38;;
25870;SDS011;13689;48.590;7.752;2023-07-09T02:29:16;8.90;;;3.80;;
25870;SDS011;13689;48.590;7.752;2023-07-09T02:31:42;8.63;;;3.47;;
25870;SDS011;13689;48.590;7.752;2023-07-09T02:34:08;6.72;;;3.13;;
25870;SDS011;13689;48.590;7.752;2023-07-09T02:36:34;5.95;;;3.25;;
25870;SDS011;13689;48.590;7.752;2023-07-09T02:38:59;5.85;;;3.50;;
25870;SDS011;13689;48.590;7.752;2023-07-09T02:41:25;9.48;;;3.40;;
25870;SDS011;13689;48.590;7.752;2023-07-09T02:43:51;8.45;;;3.30;;
25870;SDS011;13689;48.590;7.752;2023-07-09T02:46:16;6.30;;;3.75;;
25870;SDS011;13689;48.590;7.752;2023-07-09T02:48:42;7.53;;;3.70;;
25870;SDS011;13689;48.590;7.752;2023-07-09T02:51:08;8.68;;;3.53;;
25870;SDS011;13689;48.590;7.752;2023-07-09T02:53:33;10.25;;;4.20;;
25870;SDS011;13689;48.590;7.752;2023-07-09T02:55:59;6.45;;;3.25;;
25870;SDS011;13689;48.590;7.752;2023-07-09T02:58:25;7.97;;;4.13;;
25870;SDS011;13689;48.590;7.752;2023-07-09T03:00:51;5.38;;;3.50;;
25870;SDS011;13689;48.590;7.752;2023-07-09T03:03:18;6.72;;;4.05;;
25870;SDS011;13689;48.590;7.752;2023-07-09T03:05:45;6.53;;;3.50;;
25870;SDS011;13689;48.590;7.752;2023-07-09T03:08:11;8.20;;;3.97;;
25870;SDS011;13689;48.590;7.752;2023-07-09T03:10:37;8.00;;;3.58;;
25870;SDS011;13689;48.590;7.752;2023-07-09T03:13:02;9.25;;;3.70;;
25870;SDS011;13689;48.590;7.752;2023-07-09T03:15:28;6.25;;;3.70;;
25870;SDS011;13689;48.590;7.752;2023-07-09T03:17:53;6.93;;;3.75;;
25870;SDS011;13689;48.590;7.752;2023-07-09T03:20:19;6.53;;;3.70;;
25870;SDS011;13689;48.590;7.752;2023-07-09T03:22:44;9.10;;;3.85;;
25870;SDS011;13689;48.590;7.752;2023-07-09T03:25:10;9.25;;;3.80;;
25870;SDS011;13689;48.590;7.752;2023-07-09T03:27:36;5.68;;;3.35;;
25870;SDS011;13689;48.590;7.752;2023-07-09T03:30:01;8.93;;;3.88;;
25870;SDS011;13689;48.590;7.752;2023-07-09T03:32:27;6.70;;;4.18;;
25870;SDS011;13689;48.590;7.752;2023-07-09T03:34:53;11.65;;;4.00;;
25870;SDS011;13689;48.590;7.752;2023-07-09T03:37:18;8.55;;;4.50;;
25870;SDS011;13689;48.590;7.752;2023-07-09T03:39:47;8.00;;;4.47;;
25870;SDS011;13689;48.590;7.752;2023-07-09T03:42:13;6.10;;;4.05;;
25870;SDS011;13689;48.590;7.752;2023-07-09T03:44:38;6.38;;;3.75;;
25870;SDS011;13689;48.590;7.752;2023-07-09T03:47:05;8.90;;;3.70;;
25870;SDS011;13689;48.590;7.752;2023-07-09T03:49:31;8.88;;;3.58;;
25870;SDS011;13689;48.590;7.752;2023-07-09T03:51:58;6.90;;;3.80;;
25870;SDS011;13689;48.590;7.752;2023-07-09T03:54:23;5.68;;;3.78;;
25870;SDS011;13689;48.590;7.752;2023-07-09T03:56:49;5.68;;;3.55;;
25870;SDS011;13689;48.590;7.752;2023-07-09T03:59:15;6.90;;;3.58;;
25870;SDS011;13689;48.590;7.752;2023-07-09T04:01:40;5.72;;;3.85;;
25870;SDS011;13689;48.590;7.752;2023-07-09T04:04:11;6.82;;;3.60;;
25870;SDS011;13689;48.590;7.752;2023-07-09T04:06:37;7.18;;;3.90;;
25870;SDS011;13689;48.590;7.752;2023-07-09T04:09:03;6.43;;;3.58;;
25870;SDS011;13689;48.590;7.752;2023-07-09T04:11:29;9.98;;;4.00;;
25870;SDS011;13689;48.590;7.752;2023-07-09T04:13:54;7.55;;;4.00;;
25870;SDS011;13689;48.590;7.752;2023-07-09T04:16:20;10.77;;;4.20;;
25870;SDS011;13689;48.590;7.752;2023-07-09T04:18:46;11.55;;;3.55;;
25870;SDS011;13689;48.590;7.752;2023-07-09T04:21:11;13.55;;;3.75;;
25870;SDS011;13689;48.590;7.752;2023-07-09T04:23:37;8.75;;;4.25;;
25870;SDS011;13689;48.590;7.752;2023-07-09T04:26:03;7.40;;;3.83;;
25870;SDS011;13689;48.590;7.752;2023-07-09T04:28:29;6.55;;;3.80;;
25870;SDS011;13689;48.590;7.752;2023-07-09T04:30:55;5.72;;;3.67;;
25870;SDS011;13689;48.590;7.752;2023-07-09T04:33:21;10.13;;;3.63;;
25870;SDS011;13689;48.590;7.752;2023-07-09T04:35:47;8.13;;;4.00;;
25870;SDS011;13689;48.590;7.752;2023-07-09T04:38:14;8.17;;;4.23;;
25870;SDS011;13689;48.590;7.752;2023-07-09T04:40:40;11.52;;;4.65;;
25870;SDS011;13689;48.590;7.752;2023-07-09T04:43:06;8.32;;;4.38;;
25870;SDS011;13689;48.590;7.752;2023-07-09T04:45:32;9.90;;;4.20;;
25870;SDS011;13689;48.590;7.752;2023-07-09T04:47:58;7.85;;;3.72;;
25870;SDS011;13689;48.590;7.752;2023-07-09T04:50:24;7.10;;;3.80;;
25870;SDS011;13689;48.590;7.752;2023-07-09T04:52:49;5.88;;;4.72;;
25870;SDS011;13689;48.590;7.752;2023-07-09T04:55:17;9.18;;;4.05;;
25870;SDS011;13689;48.590;7.752;2023-07-09T04:57:44;12.77;;;3.40;;
25870;SDS011;13689;48.590;7.752;2023-07-09T05:00:10;7.10;;;4.05;;
25870;SDS011;13689;48.590;7.752;2023-07-09T05:02:36;6.97;;;3.83;;
25870;SDS011;13689;48.590;7.752;2023-07-09T05:05:02;5.72;;;4.03;;
25870;SDS011;13689;48.590;7.752;2023-07-09T05:07:27;8.45;;;3.72;;
25870;SDS011;13689;48.590;7.752;2023-07-09T05:09:53;10.77;;;4.03;;
25870;SDS011;13689;48.590;7.752;2023-07-09T05:12:19;8.45;;;3.92;;
25870;SDS011;13689;48.590;7.752;2023-07-09T05:14:45;8.65;;;3.95;;
25870;SDS011;13689;48.590;7.752;2023-07-09T05:17:11;7.95;;;3.60;;
25870;SDS011;13689;48.590;7.752;2023-07-09T05:19:37;7.85;;;4.18;;
25870;SDS011;13689;48.590;7.752;2023-07-09T05:22:03;9.32;;;3.83;;
25870;SDS011;13689;48.590;7.752;2023-07-09T05:24:29;6.13;;;3.83;;
25870;SDS011;13689;48.590;7.752;2023-07-09T05:26:55;8.32;;;3.70;;
25870;SDS011;13689;48.590;7.752;2023-07-09T05:29:21;8.55;;;3.88;;
25870;SDS011;13689;48.590;7.752;2023-07-09T05:31:52;12.88;;;5.68;;
25870;SDS011;13689;48.590;7.752;2023-07-09T05:34:18;9.85;;;4.00;;
25870;SDS011;13689;48.590;7.752;2023-07-09T05:36:44;9.40;;;3.83;;
25870;SDS011;13689;48.590;7.752;2023-07-09T05:39:09;10.38;;;3.78;;
25870;SDS011;13689;48.590;7.752;2023-07-09T05:41:35;6.18;;;3.50;;
25870;SDS011;13689;48.590;7.752;2023-07-09T05:44:01;9.45;;;3.83;;
25870;SDS011;13689;48.590;7.752;2023-07-09T05:46:27;7.05;;;3.78;;
25870;SDS011;13689;48.590;7.752;2023-07-09T05:48:52;9.50;;;3.78;;
25870;SDS011;13689;48.590;7.752;2023-07-09T05:51:18;5.15;;;3.28;;
25870;SDS011;13689;48.590;7.752;2023-07-09T05:53:46;9.05;;;3.70;;
25870;SDS011;13689;48.590;7.752;2023-07-09T05:56:13;6.93;;;3.78;;
25870;SDS011;13689;48.590;7.752;2023-07-09T05:58:40;6.57;;;3.58;;
25870;SDS011;13689;48.590;7.752;2023-07-09T06:01:06;7.05;;;3.80;;
25870;SDS011;13689;48.590;7.752;2023-07-09T06:03:32;9.73;;;3.97;;
25870;SDS011;13689;48.590;7.752;2023-07-09T06:05:58;6.10;;;3.90;;
25870;SDS011;13689;48.590;7.752;2023-07-09T06:08:25;7.68;;;3.70;;
25870;SDS011;13689;48.590;7.752;2023-07-09T06:13:16;7.05;;;4.38;;
25870;SDS011;13689;48.590;7.752;2023-07-09T06:15:43;8.38;;;4.00;;
25870;SDS011;13689;48.590;7.752;2023-07-09T06:18:09;10.70;;;3.72;;
25870;SDS011;13689;48.590;7.752;2023-07-09T06:20:34;8.73;;;4.03;;
25870;SDS011;13689;48.590;7.752;2023-07-09T06:23:00;7.80;;;4.22;;
25870;SDS011;13689;48.590;7.752;2023-07-09T06:25:26;10.57;;;4.40;;
25870;SDS011;13689;48.590;7.752;2023-07-09T06:27:51;9.10;;;4.80;;
25870;SDS011;13689;48.590;7.752;2023-07-09T06:30:17;13.40;;;4.90;;
25870;SDS011;13689;48.590;7.752;2023-07-09T06:32:44;5.68;;;3.90;;
25870;SDS011;13689;48.590;7.752;2023-07-09T06:35:10;9.45;;;3.95;;
25870;SDS011;13689;48.590;7.752;2023-07-09T06:37:38;8.02;;;3.97;;
25870;SDS011;13689;48.590;7.752;2023-07-09T06:40:04;6.80;;;3.85;;
25870;SDS011;13689;48.590;7.752;2023-07-09T06:42:33;7.47;;;4.13;;
25870;SDS011;13689;48.590;7.752;2023-07-09T06:44:58;8.40;;;4.05;;
25870;SDS011;13689;48.590;7.752;2023-07-09T06:47:24;9.35;;;3.90;;
25870;SDS011;13689;48.590;7.752;2023-07-09T06:49:49;10.07;;;3.92;;
25870;SDS011;13689;48.590;7.752;2023-07-09T06:52:15;9.57;;;3.55;;
25870;SDS011;13689;48.590;7.752;2023-07-09T06:54:41;9.23;;;3.90;;
25870;SDS011;13689;48.590;7.752;2023-07-09T06:57:07;9.93;;;4.22;;
25870;SDS011;13689;48.590;7.752;2023-07-09T06:59:32;9.00;;;3.65;;
25870;SDS011;13689;48.590;7.752;2023-07-09T07:01:58;4.00;;;3.25;;
25870;SDS011;13689;48.590;7.752;2023-07-09T07:04:25;10.20;;;4.30;;
25870;SDS011;13689;48.590;7.752;2023-07-09T07:06:51;4.32;;;2.97;;
25870;SDS011;13689;48.590;7.752;2023-07-09T07:09:20;5.40;;;3.10;;
25870;SDS011;13689;48.590;7.752;2023-07-09T07:11:46;7.80;;;3.78;;
25870;SDS011;13689;48.590;7.752;2023-07-09T07:14:11;4.70;;;3.28;;
25870;SDS011;13689;48.590;7.752;2023-07-09T07:16:46;9.48;;;4.30;;
25870;SDS011;13689;48.590;7.752;2023-07-09T07:19:12;9.10;;;4.65;;
25870;SDS011;13689;48.590;7.752;2023-07-09T07:21:38;8.25;;;3.40;;
25870;SDS011;13689;48.590;7.752;2023-07-09T07:24:07;10.57;;;3.80;;
25870;SDS011;13689;48.590;7.752;2023-07-09T07:26:32;8.23;;;3.28;;
25870;SDS011;13689;48.590;7.752;2023-07-09T07:28:58;8.07;;;3.22;;
25870;SDS011;13689;48.590;7.752;2023-07-09T07:31:24;9.05;;;3.78;;
25870;SDS011;13689;48.590;7.752;2023-07-09T07:33:50;9.07;;;3.83;;
25870;SDS011;13689;48.590;7.752;2023-07-09T07:36:16;6.70;;;3.90;;
25870;SDS011;13689;48.590;7.752;2023-07-09T07:38:41;7.13;;;3.97;;
25870;SDS011;13689;48.590;7.752;2023-07-09T07:41:11;6.68;;;3.53;;
25870;SDS011;13689;48.590;7.752;2023-07-09T07:43:37;5.90;;;3.78;;
25870;SDS011;13689;48.590;7.752;2023-07-09T07:46:02;7.78;;;3.70;;
25870;SDS011;13689;48.590;7.752;2023-07-09T07:48:28;7.13;;;3.67;;
25870;SDS011;13689;48.590;7.752;2023-07-09T07:51:00;7.13;;;3.67;;
25870;SDS011;13689;48.590;7.752;2023-07-09T07:53:30;5.25;;;3.33;;
25870;SDS011;13689;48.590;7.752;2023-07-09T07:55:59;8.32;;;3.70;;
25870;SDS011;13689;48.590;7.752;2023-07-09T07:58:26;8.05;;;3.90;;
25870;SDS011;13689;48.590;7.752;2023-07-09T08:00:56;8.93;;;3.95;;
25870;SDS011;13689;48.590;7.752;2023-07-09T08:03:22;4.45;;;3.67;;
25870;SDS011;13689;48.590;7.752;2023-07-09T08:05:52;7.57;;;3.78;;
25870;SDS011;13689;48.590;7.752;2023-07-09T08:08:18;11.88;;;4.00;;
25870;SDS011;13689;48.590;7.752;2023-07-09T08:10:44;6.53;;;3.35;;
25870;SDS011;13689;48.590;7.752;2023-07-09T08:13:12;6.47;;;3.67;;
25870;SDS011;13689;48.590;7.752;2023-07-09T08:15:38;5.80;;;3.40;;
25870;SDS011;13689;48.590;7.752;2023-07-09T08:18:04;10.57;;;3.35;;
25870;SDS011;13689;48.590;7.752;2023-07-09T08:20:32;9.00;;;3.17;;
25870;SDS011;13689;48.590;7.752;2023-07-09T08:22:58;7.40;;;3.60;;
25870;SDS011;13689;48.590;7.752;2023-07-09T08:25:24;4.60;;;3.20;;
25870;SDS011;13689;48.590;7.752;2023-07-09T08:27:49;5.03;;;3.53;;
25870;SDS011;13689;48.590;7.752;2023-07-09T08:30:18;7.68;;;3.58;;
25870;SDS011;13689;48.590;7.752;2023-07-09T08:32:49;6.82;;;3.17;;
25870;SDS011;13689;48.590;7.752;2023-07-09T08:35:15;5.83;;;3.00;;
25870;SDS011;13689;48.590;7.752;2023-07-09T08:37:41;8.18;;;3.30;;
25870;SDS011;13689;48.590;7.752;2023-07-09T08:40:09;7.95;;;3.55;;
25870;SDS011;13689;48.590;7.752;2023-07-09T08:42:42;4.75;;;3.40;;
25870;SDS011;13689;48.590;7.752;2023-07-09T08:50:50;4.72;;;2.97;;
25870;SDS011;13689;48.590;7.752;2023-07-09T08:53:20;6.90;;;3.60;;
25870;SDS011;13689;48.590;7.752;2023-07-09T08:55:53;6.07;;;3.13;;
25870;SDS011;13689;48.590;7.752;2023-07-09T08:58:23;3.85;;;3.00;;
25870;SDS011;13689;48.590;7.752;2023-07-09T09:05:56;4.82;;;3.22;;
25870;SDS011;13689;48.590;7.752;2023-07-09T09:08:34;4.38;;;3.05;;
25870;SDS011;13689;48.590;7.752;2023-07-09T09:11:20;8.02;;;3.15;;
25870;SDS011;13689;48.590;7.752;2023-07-09T09:13:55;3.65;;;3.05;;
25870;SDS011;13689;48.590;7.752;2023-07-09T09:16:34;5.25;;;3.00;;
25870;SDS011;13689;48.590;7.752;2023-07-09T09:19:03;5.18;;;3.03;;
25870;SDS011;13689;48.590;7.752;2023-07-09T09:21:43;5.25;;;3.00;;
25870;SDS011;13689;48.590;7.752;2023-07-09T09:24:17;5.30;;;3.22;;
25870;SDS011;13689;48.590;7.752;2023-07-09T09:26:48;5.93;;;2.67;;
25870;SDS011;13689;48.590;7.752;2023-07-09T09:29:17;7.65;;;2.60;;
25870;SDS011;13689;48.590;7.752;2023-07-09T09:31:45;8.53;;;3.17;;
25870;SDS011;13689;48.590;7.752;2023-07-09T09:34:16;12.93;;;3.53;;
25870;SDS011;13689;48.590;7.752;2023-07-09T09:36:46;3.80;;;2.70;;
25870;SDS011;13689;48.590;7.752;2023-07-09T09:39:14;4.93;;;2.83;;
25870;SDS011;13689;48.590;7.752;2023-07-09T09:41:42;4.47;;;2.78;;
25870;SDS011;13689;48.590;7.752;2023-07-09T09:44:17;5.82;;;2.90;;
25870;SDS011;13689;48.590;7.752;2023-07-09T09:46:45;8.77;;;3.25;;
25870;SDS011;13689;48.590;7.752;2023-07-09T09:49:12;3.95;;;3.38;;
25870;SDS011;13689;48.590;7.752;2023-07-09T09:51:39;8.40;;;3.20;;
25870;SDS011;13689;48.590;7.752;2023-07-09T09:54:11;4.93;;;3.10;;
25870;SDS011;13689;48.590;7.752;2023-07-09T09:56:49;6.78;;;2.85;;
25870;SDS011;13689;48.590;7.752;2023-07-09T09:59:20;7.57;;;3.70;;
25870;SDS011;13689;48.590;7.752;2023-07-09T10:01:56;5.18;;;2.95;;
25870;SDS011;13689;48.590;7.752;2023-07-09T10:04:26;7.88;;;3.42;;
25870;SDS011;13689;48.590;7.752;2023-07-09T10:06:54;4.15;;;2.80;;
25870;SDS011;13689;48.590;7.752;2023-07-09T10:09:33;4.60;;;2.67;;
25870;SDS011;13689;48.590;7.752;2023-07-09T10:20:23;3.33;;;2.70;;
25870;SDS011;13689;48.590;7.752;2023-07-09T10:25:35;7.20;;;3.03;;
25870;SDS011;13689;48.590;7.752;2023-07-09T10:31:22;3.03;;;2.33;;
25870;SDS011;13689;48.590;7.752;2023-07-09T10:33:56;2.90;;;2.67;;
25870;SDS011;13689;48.590;7.752;2023-07-09T10:36:48;5.03;;;2.58;;
25870;SDS011;13689;48.590;7.752;2023-07-09T10:39:32;6.70;;;2.60;;
25870;SDS011;13689;48.590;7.752;2023-07-09T10:42:01;4.70;;;2.30;;
25870;SDS011;13689;48.590;7.752;2023-07-09T10:47:02;3.58;;;2.38;;
25870;SDS011;13689;48.590;7.752;2023-07-09T10:49:35;5.00;;;2.72;;
25870;SDS011;13689;48.590;7.752;2023-07-09T10:52:12;6.47;;;3.13;;
25870;SDS011;13689;48.590;7.752;2023-07-09T10:57:30;4.40;;;2.55;;
25870;SDS011;13689;48.590;7.752;2023-07-09T11:00:15;4.38;;;2.90;;
25870;SDS011;13689;48.590;7.752;2023-07-09T11:02:43;4.40;;;3.03;;
25870;SDS011;13689;48.590;7.752;2023-07-09T11:05:10;10.90;;;2.80;;
25870;SDS011;13689;48.590;7.752;2023-07-09T11:07:39;5.10;;;2.92;;
25870;SDS011;13689;48.590;7.752;2023-07-09T11:10:25;4.33;;;2.50;;
25870;SDS011;13689;48.590;7.752;2023-07-09T11:12:59;9.18;;;3.20;;
25870;SDS011;13689;48.590;7.752;2023-07-09T11:15:37;7.57;;;2.80;;
25870;SDS011;13689;48.590;7.752;2023-07-09T11:18:07;4.95;;;2.70;;
25870;SDS011;13689;48.590;7.752;2023-07-09T11:21:13;5.85;;;3.03;;
25870;SDS011;13689;48.590;7.752;2023-07-09T11:23:45;5.32;;;2.75;;
25870;SDS011;13689;48.590;7.752;2023-07-09T11:26:29;3.20;;;2.50;;
25870;SDS011;13689;48.590;7.752;2023-07-09T11:31:39;7.82;;;2.80;;
25870;SDS011;13689;48.590;7.752;2023-07-09T11:34:19;5.03;;;2.70;;
25870;SDS011;13689;48.590;7.752;2023-07-09T11:36:50;5.65;;;2.85;;
25870;SDS011;13689;48.590;7.752;2023-07-09T11:39:20;7.10;;;2.92;;
25870;SDS011;13689;48.590;7.752;2023-07-09T11:41:54;7.22;;;3.42;;
25870;SDS011;13689;48.590;7.752;2023-07-09T11:44:21;5.20;;;3.60;;
25870;SDS011;13689;48.590;7.752;2023-07-09T11:50:13;6.00;;;2.75;;
25870;SDS011;13689;48.590;7.752;2023-07-09T11:58:15;5.97;;;2.85;;
25870;SDS011;13689;48.590;7.752;2023-07-09T12:03:21;7.03;;;2.80;;
25870;SDS011;13689;48.590;7.752;2023-07-09T12:06:33;6.57;;;3.33;;
25870;SDS011;13689;48.590;7.752;2023-07-09T12:08:49;4.10;;;2.75;;
25870;SDS011;13689;48.590;7.752;2023-07-09T12:11:37;8.98;;;3.03;;
25870;SDS011;13689;48.590;7.752;2023-07-09T12:14:12;8.50;;;3.00;;
25870;SDS011;13689;48.590;7.752;2023-07-09T12:16:40;8.85;;;3.05;;
25870;SDS011;13689;48.590;7.752;2023-07-09T12:19:12;8.32;;;2.65;;
25870;SDS011;13689;48.590;7.752;2023-07-09T12:21:39;8.20;;;3.08;;
25870;SDS011;13689;48.590;7.752;2023-07-09T12:24:15;6.35;;;2.72;;
25870;SDS011;13689;48.590;7.752;2023-07-09T12:26:51;7.88;;;3.00;;
25870;SDS011;13689;48.590;7.752;2023-07-09T12:29:18;6.63;;;3.00;;
25870;SDS011;13689;48.590;7.752;2023-07-09T12:31:44;4.18;;;3.22;;
25870;SDS011;13689;48.590;7.752;2023-07-09T12:34:11;5.85;;;2.80;;
25870;SDS011;13689;48.590;7.752;2023-07-09T12:36:41;6.68;;;3.38;;
25870;SDS011;13689;48.590;7.752;2023-07-09T12:39:11;7.07;;;2.92;;
25870;SDS011;13689;48.590;7.752;2023-07-09T12:41:38;6.13;;;2.78;;
25870;SDS011;13689;48.590;7.752;2023-07-09T12:44:11;7.38;;;3.38;;
25870;SDS011;13689;48.590;7.752;2023-07-09T12:46:45;3.92;;;2.90;;
25870;SDS011;13689;48.590;7.752;2023-07-09T12:49:18;4.63;;;2.75;;
25870;SDS011;13689;48.590;7.752;2023-07-09T12:51:49;5.88;;;2.63;;
25870;SDS011;13689;48.590;7.752;2023-07-09T12:54:17;4.05;;;2.88;;
25870;SDS011;13689;48.590;7.752;2023-07-09T12:56:44;6.80;;;3.25;;
25870;SDS011;13689;48.590;7.752;2023-07-09T12:59:20;5.77;;;3.00;;
25870;SDS011;13689;48.590;7.752;2023-07-09T13:01:55;7.75;;;2.80;;
25870;SDS011;13689;48.590;7.752;2023-07-09T13:04:22;4.28;;;2.85;;
25870;SDS011;13689;48.590;7.752;2023-07-09T13:07:01;6.47;;;3.15;;
25870;SDS011;13689;48.590;7.752;2023-07-09T13:09:28;6.43;;;2.78;;
25870;SDS011;13689;48.590;7.752;2023-07-09T13:11:54;4.57;;;2.30;;
25870;SDS011;13689;48.590;7.752;2023-07-09T13:14:22;8.70;;;4.40;;
25870;SDS011;13689;48.590;7.752;2023-07-09T13:16:52;6.05;;;2.80;;
25870;SDS011;13689;48.590;7.752;2023-07-09T13:19:18;5.63;;;3.13;;
25870;SDS011;13689;48.590;7.752;2023-07-09T13:21:44;5.23;;;2.80;;
25870;SDS011;13689;48.590;7.752;2023-07-09T13:24:16;9.60;;;3.40;;
25870;SDS011;13689;48.590;7.752;2023-07-09T13:26:46;6.70;;;3.10;;
25870;SDS011;13689;48.590;7.752;2023-07-09T13:29:15;4.78;;;2.63;;
25870;SDS011;13689;48.590;7.752;2023-07-09T13:31:46;8.20;;;2.75;;
25870;SDS011;13689;48.590;7.752;2023-07-09T13:34:26;6.15;;;2.92;;
25870;SDS011;13689;48.590;7.752;2023-07-09T13:36:53;4.38;;;2.33;;
25870;SDS011;13689;48.590;7.752;2023-07-09T13:39:21;7.88;;;2.63;;
25870;SDS011;13689;48.590;7.752;2023-07-09T13:41:50;3.63;;;2.33;;
25870;SDS011;13689;48.590;7.752;2023-07-09T13:44:21;4.63;;;2.33;;
25870;SDS011;13689;48.590;7.752;2023-07-09T13:46:50;5.80;;;2.45;;
25870;SDS011;13689;48.590;7.752;2023-07-09T13:49:20;10.20;;;2.80;;
25870;SDS011;13689;48.590;7.752;2023-07-09T13:51:48;5.57;;;2.78;;
25870;SDS011;13689;48.590;7.752;2023-07-09T13:54:21;11.20;;;2.95;;
25870;SDS011;13689;48.590;7.752;2023-07-09T13:56:48;6.18;;;3.25;;
25870;SDS011;13689;48.590;7.752;2023-07-09T13:59:16;7.18;;;3.20;;
25870;SDS011;13689;48.590;7.752;2023-07-09T14:01:44;5.05;;;2.88;;
25870;SDS011;13689;48.590;7.752;2023-07-09T14:04:12;5.65;;;2.83;;
25870;SDS011;13689;48.590;7.752;2023-07-09T14:06:39;9.82;;;2.90;;
25870;SDS011;13689;48.590;7.752;2023-07-09T14:09:06;4.95;;;2.38;;
25870;SDS011;13689;48.590;7.752;2023-07-09T14:11:33;5.13;;;2.67;;
25870;SDS011;13689;48.590;7.752;2023-07-09T14:13:59;5.28;;;3.10;;
25870;SDS011;13689;48.590;7.752;2023-07-09T14:16:25;10.05;;;2.90;;
25870;SDS011;13689;48.590;7.752;2023-07-09T14:18:51;5.55;;;2.33;;
25870;SDS011;13689;48.590;7.752;2023-07-09T14:21:25;4.40;;;2.53;;
25870;SDS011;13689;48.590;7.752;2023-07-09T14:23:52;6.57;;;2.90;;
25870;SDS011;13689;48.590;7.752;2023-07-09T14:26:18;9.02;;;2.95;;
25870;SDS011;13689;48.590;7.752;2023-07-09T14:28:44;10.95;;;3.15;;
25870;SDS011;13689;48.590;7.752;2023-07-09T14:31:20;7.38;;;3.70;;
25870;SDS011;13689;48.590;7.752;2023-07-09T14:33:50;7.18;;;2.90;;
25870;SDS011;13689;48.590;7.752;2023-07-09T14:36:18;5.82;;;2.67;;
25870;SDS011;13689;48.590;7.752;2023-07-09T14:38:43;6.60;;;2.78;;
25870;SDS011;13689;48.590;7.752;2023-07-09T14:41:17;5.85;;;2.58;;
25870;SDS011;13689;48.590;7.752;2023-07-09T14:43:46;5.20;;;2.80;;
25870;SDS011;13689;48.590;7.752;2023-07-09T14:46:11;13.70;;;3.35;;
25870;SDS011;13689;48.590;7.752;2023-07-09T14:48:37;4.47;;;2.45;;
25870;SDS011;13689;48.590;7.752;2023-07-09T14:51:07;8.70;;;3.03;;
25870;SDS011;13689;48.590;7.752;2023-07-09T14:53:39;7.10;;;2.92;;
25870;SDS011;13689;48.590;7.752;2023-07-09T14:56:05;4.03;;;2.78;;
25870;SDS011;13689;48.590;7.752;2023-07-09T14:58:30;4.65;;;2.75;;
25870;SDS011;13689;48.590;7.752;2023-07-09T15:00:56;4.88;;;2.40;;
25870;SDS011;13689;48.590;7.752;2023-07-09T15:03:23;8.45;;;2.80;;
25870;SDS011;13689;48.590;7.752;2023-07-09T15:05:51;6.60;;;2.67;;
25870;SDS011;13689;48.590;7.752;2023-07-09T15:08:21;4.95;;;2.60;;
25870;SDS011;13689;48.590;7.752;2023-07-09T15:10:49;4.50;;;2.80;;
25870;SDS011;13689;48.590;7.752;2023-07-09T15:13:17;4.82;;;2.35;;
25870;SDS011;13689;48.590;7.752;2023-07-09T15:16:04;7.68;;;3.20;;
25870;SDS011;13689;48.590;7.752;2023-07-09T15:18:30;7.55;;;2.15;;
25870;SDS011;13689;48.590;7.752;2023-07-09T15:20:59;4.47;;;2.40;;
25870;SDS011;13689;48.590;7.752;2023-07-09T15:23:26;4.30;;;2.65;;
25870;SDS011;13689;48.590;7.752;2023-07-09T15:25:54;7.47;;;2.70;;
25870;SDS011;13689;48.590;7.752;2023-07-09T15:28:21;6.82;;;3.58;;
25870;SDS011;13689;48.590;7.752;2023-07-09T15:30:46;6.10;;;2.42;;
25870;SDS011;13689;48.590;7.752;2023-07-09T15:33:13;7.85;;;2.47;;
25870;SDS011;13689;48.590;7.752;2023-07-09T15:35:45;4.47;;;2.22;;
25870;SDS011;13689;48.590;7.752;2023-07-09T15:38:25;8.88;;;2.75;;
25870;SDS011;13689;48.590;7.752;2023-07-09T15:40:56;8.35;;;2.97;;
25870;SDS011;13689;48.590;7.752;2023-07-09T15:43:21;9.48;;;2.90;;
25870;SDS011;13689;48.590;7.752;2023-07-09T15:45:49;5.72;;;2.30;;
25870;SDS011;13689;48.590;7.752;2023-07-09T15:48:25;5.72;;;2.50;;
25870;SDS011;13689;48.590;7.752;2023-07-09T15:50:54;7.63;;;2.67;;
25870;SDS011;13689;48.590;7.752;2023-07-09T15:53:20;11.40;;;3.20;;
25870;SDS011;13689;48.590;7.752;2023-07-09T15:55:47;8.43;;;2.50;;